Time;durP1;ratioP1;P1;durP2;ratioP2;P2;SDS_P1;SDS_P2;PMS_P1;PMS_P2;Temp;Humidity;BMP_temperature;BMP_pressure;BME280_temperature;BME280_humidity;BME280_pressure;Samples;Min_cycle;Max_cycle;Signal;HPM_P1;HPM_P2
2020/12/06 00:02:14;;;;;;;14.53;11.90;;;6.00;99.90;;;;;;4938838;28;20461;-81
2020/12/06 00:05:10;;;;;;;14.33;11.07;;;5.90;99.90;;;;;;4939782;28;20600;-80
2020/12/06 00:08:15;;;;;;;;;;;;;;;;;;;;;
2020/12/06 00:11:06;;;;;;;;;;;;;;;;;;;;;
2020/12/06 00:14:04;;;;;;;15.17;11.47;;;6.20;99.90;;;;;;4939826;28;20874;-80
2020/12/06 00:17:01;;;;;;;;;;;;;;;;;;;;;
2020/12/06 00:23:05;;;;;;;13.47;9.90;;;6.40;99.90;;;;;;4650290;23;10001873;-81
2020/12/06 00:26:19;;;;;;;16.57;12.40;;;6.30;99.90;;;;;;4994732;28;20211;-80
2020/12/06 00:29:48;;;;;;;14.70;11.60;;;6.30;99.90;;;;;;4989805;23;20502;-80
2020/12/06 00:36:11;;;;;;;15.47;12.10;;;6.30;99.90;;;;;;4910819;29;20508;-79
2020/12/06 00:42:01;;;;;;;14.10;10.93;;;6.10;99.90;;;;;;4913310;29;20931;-78
2020/12/06 00:44:48;;;;;;;13.20;11.20;;;6.10;99.90;;;;;;4897840;29;20461;-80
2020/12/06 00:47:44;;;;;;;13.77;10.50;;;6.20;99.90;;;;;;4896715;29;20464;-80
2020/12/06 00:50:50;;;;;;;12.30;10.27;;;6.50;99.90;;;;;;4910167;29;20545;-80
2020/12/06 00:54:10;;;;;;;14.07;11.53;;;6.50;99.90;;;;;;4980703;28;21082;-81
2020/12/06 00:57:16;;;;;;;13.03;10.30;;;6.80;99.90;;;;;;4929867;29;20528;-79
2020/12/06 01:03:39;;;;;;;14.07;10.67;;;6.60;99.90;;;;;;4928608;29;20469;-81
2020/12/06 01:06:18;;;;;;;16.33;11.70;;;6.50;99.90;;;;;;4924956;29;20520;-79
2020/12/06 01:08:56;;;;;;;14.40;11.57;;;6.50;99.90;;;;;;4929458;28;20458;-80
2020/12/06 01:11:26;;;;;;;12.20;10.17;;;6.30;99.90;;;;;;4931608;29;20458;-79
2020/12/06 01:13:55;;;;;;;13.27;11.00;;;6.40;99.90;;;;;;4939378;28;20518;-80
2020/12/06 01:16:39;;;;;;;14.67;11.07;;;6.10;99.90;;;;;;4933347;28;20457;-80
2020/12/06 01:19:28;;;;;;;15.00;11.40;;;6.10;99.90;;;;;;4909674;29;20594;-79
2020/12/06 01:22:00;;;;;;;14.87;10.37;;;6.20;99.90;;;;;;4917831;29;20501;-79
2020/12/06 01:24:46;;;;;;;12.27;9.80;;;6.00;99.90;;;;;;4925807;28;20930;-80
2020/12/06 01:27:25;;;;;;;11.70;9.50;;;6.10;99.90;;;;;;4894538;29;20455;-80
2020/12/06 01:30:12;;;;;;;16.10;9.13;;;6.70;99.90;;;;;;4898923;28;20470;-79
2020/12/06 01:33:09;;;;;;;12.40;9.63;;;6.60;99.90;;;;;;4982567;28;20516;-79
2020/12/06 01:36:00;;;;;;;11.73;9.07;;;6.70;99.90;;;;;;4981449;28;20539;-80
2020/12/06 01:38:51;;;;;;;12.83;10.33;;;6.30;99.90;;;;;;4981841;28;20513;-78
2020/12/06 01:41:48;;;;;;;13.70;9.80;;;6.10;99.90;;;;;;4982020;28;20447;-80
2020/12/06 01:44:36;;;;;;;12.10;9.70;;;5.90;99.90;;;;;;4976273;28;20439;-79
2020/12/06 01:47:13;;;;;;;10.30;9.20;;;5.80;99.90;;;;;;4978336;28;20466;-82
2020/12/06 01:49:59;;;;;;;12.00;9.20;;;6.10;99.90;;;;;;4983684;28;20481;-80
2020/12/06 01:52:43;;;;;;;10.80;9.63;;;6.60;99.90;;;;;;4979966;28;20531;-79
2020/12/06 01:55:18;;;;;;;11.73;9.00;;;6.30;99.90;;;;;;4980765;28;21104;-82
2020/12/06 01:58:15;;;;;;;10.80;8.90;;;6.20;99.90;;;;;;4980750;28;20481;-81
2020/12/06 02:00:59;;;;;;;12.90;8.40;;;6.10;99.90;;;;;;4983090;28;20443;-81
2020/12/06 02:03:55;;;;;;;10.63;8.90;;;6.40;99.90;;;;;;4980164;28;20480;-80
2020/12/06 02:06:40;;;;;;;15.07;10.10;;;6.60;99.90;;;;;;4983085;28;20494;-81
2020/12/06 02:09:37;;;;;;;12.67;10.67;;;6.90;99.90;;;;;;4981495;28;20554;-80
2020/12/06 02:12:07;;;;;;;14.20;10.40;;;7.00;99.90;;;;;;4991600;28;20466;-79
2020/12/06 02:14:43;;;;;;;14.17;10.10;;;6.80;99.90;;;;;;4986095;28;20467;-79
2020/12/06 02:17:30;;;;;;;13.10;10.10;;;6.50;99.90;;;;;;4983940;28;20450;-79
2020/12/06 02:20:20;;;;;;;12.43;9.70;;;6.20;99.90;;;;;;4985445;28;20454;-80
2020/12/06 02:22:53;;;;;;;10.70;9.30;;;6.10;99.90;;;;;;4976067;28;20468;-79
2020/12/06 02:25:32;;;;;;;13.60;11.20;;;6.80;99.90;;;;;;4983469;28;20456;-78
2020/12/06 02:28:14;;;;;;;16.00;10.80;;;7.00;99.90;;;;;;4980739;28;20522;-80
2020/12/06 02:30:59;;;;;;;16.13;12.10;;;7.20;99.90;;;;;;4985009;28;22206;-78
2020/12/06 02:33:57;;;;;;;12.87;9.83;;;7.10;99.90;;;;;;4983826;28;20597;-78
2020/12/06 02:36:43;;;;;;;19.97;11.90;;;6.80;99.90;;;;;;4986204;28;20474;-81
2020/12/06 02:39:22;;;;;;;14.83;10.23;;;6.70;99.90;;;;;;4986630;28;20549;-79
2020/12/06 02:42:35;;;;;;;13.13;10.60;;;6.70;99.90;;;;;;4979232;28;20480;-80
2020/12/06 02:48:38;;;;;;;12.83;10.57;;;6.60;99.90;;;;;;4984644;28;20498;-79
2020/12/06 02:51:27;;;;;;;13.47;9.67;;;6.40;99.90;;;;;;4955009;28;20466;-79
2020/12/06 02:54:17;;;;;;;10.57;8.70;;;6.70;99.90;;;;;;4993736;28;21259;-78
2020/12/06 02:57:23;;;;;;;15.00;10.80;;;6.90;99.90;;;;;;4987139;28;20455;-78
2020/12/06 03:00:30;;;;;;;13.63;10.37;;;6.90;99.90;;;;;;4983067;28;20513;-78
2020/12/06 03:03:14;;;;;;;15.90;11.50;;;6.70;99.90;;;;;;4986851;28;20463;-78
2020/12/06 03:05:58;;;;;;;13.37;11.03;;;6.60;99.90;;;;;;4987822;28;20455;-78
2020/12/06 03:08:44;;;;;;;14.50;10.07;;;6.80;99.90;;;;;;4987810;28;20538;-78
2020/12/06 03:11:25;;;;;;;13.50;11.03;;;6.80;99.90;;;;;;4986514;28;20522;-78
2020/12/06 03:14:02;;;;;;;13.70;10.70;;;6.80;99.90;;;;;;4981838;28;20489;-79
2020/12/06 03:16:40;;;;;;;14.20;10.20;;;6.70;99.90;;;;;;4979969;28;20448;-78
2020/12/06 03:19:16;;;;;;;13.80;11.43;;;6.70;99.90;;;;;;4985992;28;20474;-78
2020/12/06 03:22:08;;;;;;;13.53;9.80;;;6.70;99.90;;;;;;4983546;28;20546;-78
2020/12/06 03:24:42;;;;;;;13.63;10.90;;;6.50;99.90;;;;;;4987797;28;21004;-78
2020/12/06 03:27:33;;;;;;;13.60;10.53;;;6.50;99.90;;;;;;4985731;28;20455;-80
2020/12/06 03:30:12;;;;;;;12.30;9.63;;;6.20;99.90;;;;;;4986130;28;21767;-80
2020/12/06 03:32:54;;;;;;;13.10;9.53;;;6.20;99.90;;;;;;4987581;28;20515;-80
2020/12/06 03:35:46;;;;;;;13.40;10.57;;;6.50;99.90;;;;;;4980656;28;20460;-77
2020/12/06 03:38:26;;;;;;;12.67;10.73;;;6.50;99.90;;;;;;4979889;28;20471;-79
2020/12/06 03:41:30;;;;;;;13.53;10.50;;;6.70;99.90;;;;;;4980501;28;20800;-80
2020/12/06 03:44:09;;;;;;;14.80;11.00;;;6.70;99.90;;;;;;4987925;28;20476;-79
2020/12/06 03:46:48;;;;;;;13.63;11.30;;;6.70;99.90;;;;;;4987497;28;20570;-76
2020/12/06 03:50:07;;;;;;;13.67;10.77;;;6.60;99.90;;;;;;4993270;28;20772;-80
2020/12/06 03:52:50;;;;;;;14.33;11.10;;;6.50;99.90;;;;;;4978819;28;20505;-80
2020/12/06 03:55:42;;;;;;;12.83;10.37;;;6.60;99.90;;;;;;4985325;28;20473;-79
2020/12/06 03:58:31;;;;;;;13.40;10.80;;;6.60;99.90;;;;;;4985255;28;20476;-78
2020/12/06 04:01:05;;;;;;;14.27;10.47;;;6.50;99.90;;;;;;4979568;28;20498;-79
2020/12/06 04:03:59;;;;;;;15.30;11.63;;;6.60;99.90;;;;;;4981502;28;20469;-81
2020/12/06 04:06:39;;;;;;;11.60;10.00;;;6.50;99.90;;;;;;4980756;28;20462;-80
2020/12/06 04:09:29;;;;;;;12.17;10.87;;;6.80;99.90;;;;;;4984762;28;21017;-78
2020/12/06 04:12:10;;;;;;;14.60;10.87;;;6.70;99.90;;;;;;4985797;28;20467;-79
2020/12/06 04:15:21;;;;;;;12.20;9.60;;;6.30;99.90;;;;;;4984246;28;20451;-78
2020/12/06 04:18:45;;;;;;;14.80;10.43;;;6.50;99.90;;;;;;4991807;28;20540;-78
2020/12/06 04:21:11;;;;;;;13.40;10.37;;;6.40;99.90;;;;;;4989323;28;20475;-78
2020/12/06 04:23:45;;;;;;;13.20;9.77;;;6.50;99.90;;;;;;4994106;28;20476;-78
2020/12/06 04:26:41;;;;;;;15.57;10.90;;;6.40;99.90;;;;;;4993437;28;20566;-80
2020/12/06 04:29:31;;;;;;;15.38;11.30;;;6.50;99.90;;;;;;4644692;28;10000667;-80
2020/12/06 04:32:15;;;;;;;16.47;10.60;;;6.50;99.90;;;;;;4991206;28;20519;-79
2020/12/06 04:35:02;;;;;;;14.07;10.70;;;6.30;99.90;;;;;;4987605;28;20480;-79
2020/12/06 04:37:43;;;;;;;14.13;10.80;;;6.60;99.90;;;;;;5001891;28;20455;-77
2020/12/06 04:40:32;;;;;;;12.33;10.30;;;6.60;99.90;;;;;;5004387;28;20514;-77
2020/12/06 04:43:06;;;;;;;13.00;10.00;;;6.50;99.90;;;;;;4997895;28;20471;-78
2020/12/06 04:45:45;;;;;;;12.93;10.47;;;6.20;99.90;;;;;;4996282;28;20455;-79
2020/12/06 04:48:48;;;;;;;12.17;9.80;;;6.30;99.90;;;;;;4994862;28;20779;-77
2020/12/06 04:52:00;;;;;;;14.10;10.07;;;6.30;99.90;;;;;;4996738;28;20464;-79
2020/12/06 04:54:44;;;;;;;13.80;9.70;;;6.40;99.90;;;;;;4995605;28;20489;-81
2020/12/06 04:57:27;;;;;;;11.80;8.83;;;6.50;99.90;;;;;;4996887;28;20455;-79
2020/12/06 05:00:18;;;;;;;11.87;10.20;;;6.40;99.90;;;;;;4990639;28;20477;-80
2020/12/06 05:03:38;;;;;;;13.60;9.70;;;6.40;99.90;;;;;;4973147;28;20443;-80
2020/12/06 05:06:32;;;;;;;11.63;8.93;;;6.30;99.90;;;;;;4980794;28;20440;-82
2020/12/06 05:09:47;;;;;;;12.17;10.23;;;6.50;99.90;;;;;;4986598;28;20482;-81
2020/12/06 05:12:29;;;;;;;11.00;9.43;;;6.50;99.90;;;;;;5000309;28;20463;-79
2020/12/06 05:15:10;;;;;;;12.53;9.67;;;6.60;99.90;;;;;;4990032;28;20463;-79
2020/12/06 05:17:52;;;;;;;12.27;9.33;;;6.80;99.90;;;;;;4987603;28;20542;-79
2020/12/06 05:20:37;;;;;;;11.77;9.10;;;6.90;99.90;;;;;;4991032;28;20538;-79
2020/12/06 05:23:34;;;;;;;12.80;9.70;;;6.80;99.90;;;;;;4966830;28;20453;-79
2020/12/06 05:26:43;;;;;;;12.87;9.30;;;6.90;99.90;;;;;;4962754;28;20432;-81
2020/12/06 05:32:25;;;;;;;12.30;9.70;;;6.90;99.90;;;;;;4961137;28;20535;-80
2020/12/06 05:35:34;;;;;;;;;;;;;;;;;;;;;
2020/12/06 05:38:37;;;;;;;10.87;8.90;;;6.60;99.90;;;;;;4987981;28;20479;-79
2020/12/06 05:41:35;;;;;;;9.50;7.60;;;6.60;99.90;;;;;;4947946;28;20987;-79
2020/12/06 05:47:47;;;;;;;12.30;8.83;;;6.90;99.90;;;;;;4946393;28;20515;-81
2020/12/06 05:50:22;;;;;;;11.07;9.23;;;6.90;99.90;;;;;;4960037;28;20455;-78
2020/12/06 05:52:56;;;;;;;13.30;10.20;;;7.00;99.90;;;;;;4945458;28;20503;-78
2020/12/06 05:55:37;;;;;;;10.97;9.23;;;6.90;99.90;;;;;;4944049;28;20531;-79
2020/12/06 05:58:20;;;;;;;13.10;9.80;;;6.80;99.90;;;;;;4944714;28;20471;-80
2020/12/06 06:01:05;;;;;;;11.37;9.60;;;6.80;99.90;;;;;;4946117;28;20532;-78
2020/12/06 06:04:01;;;;;;;13.67;9.80;;;6.70;99.90;;;;;;4940965;28;21845;-81
2020/12/06 06:06:48;;;;;;;13.23;10.07;;;6.80;99.90;;;;;;4938963;28;20452;-80
2020/12/06 06:09:39;;;;;;;9.53;8.23;;;6.80;99.90;;;;;;4941374;28;20618;-79
2020/12/06 06:12:32;;;;;;;10.10;9.07;;;6.70;99.90;;;;;;4943982;28;20460;-79
2020/12/06 06:15:45;;;;;;;11.93;8.60;;;6.30;99.90;;;;;;4930079;29;21024;-81
2020/12/06 06:21:55;;;;;;;13.33;9.47;;;6.70;99.90;;;;;;4969463;28;20604;-79
2020/12/06 06:24:46;;;;;;;11.97;8.87;;;7.00;99.90;;;;;;4954225;28;20579;-78
2020/12/06 06:27:46;;;;;;;12.30;9.10;;;6.60;99.90;;;;;;4952983;28;20459;-79
2020/12/06 06:31:05;;;;;;;13.37;9.10;;;6.30;99.90;;;;;;4861963;29;20558;-79
2020/12/06 06:33:54;;;;;;;11.30;9.17;;;6.10;99.90;;;;;;4853826;29;20566;-79
2020/12/06 06:36:36;;;;;;;13.23;9.37;;;6.50;99.90;;;;;;4868007;29;20458;-80
2020/12/06 06:39:34;;;;;;;12.17;9.33;;;6.80;99.90;;;;;;4852771;29;20595;-80
2020/12/06 06:42:28;;;;;;;11.67;9.13;;;6.90;99.90;;;;;;4850484;29;20479;-80
2020/12/06 06:45:16;;;;;;;14.20;10.47;;;7.10;99.90;;;;;;4852430;29;20453;-79
2020/12/06 06:48:31;;;;;;;;;;;;;;;;;;;;;
2020/12/06 06:51:47;;;;;;;;;;;;;;;;;;;;;
2020/12/06 06:54:29;;;;;;;11.23;8.73;;;7.00;99.90;;;;;;4979273;28;20483;-79
2020/12/06 06:57:24;;;;;;;11.00;9.07;;;6.90;99.90;;;;;;4979634;28;20455;-79
2020/12/06 07:00:08;;;;;;;11.17;8.40;;;7.00;99.90;;;;;;4986063;28;20566;-81
2020/12/06 07:02:43;;;;;;;12.30;9.10;;;6.80;99.90;;;;;;4973574;28;20451;-81
2020/12/06 07:05:18;;;;;;;10.23;8.47;;;6.90;99.90;;;;;;4975350;28;20460;-81
2020/12/06 07:08:11;;;;;;;9.10;7.80;;;6.40;99.90;;;;;;4979255;28;20984;-81
2020/12/06 07:11:19;;;;;;;8.27;7.40;;;6.30;99.90;;;;;;4978371;28;20481;-79
2020/12/06 07:13:59;;;;;;;10.90;9.33;;;6.20;99.90;;;;;;4979411;28;20479;-80
2020/12/06 07:16:58;;;;;;;10.20;9.10;;;6.30;99.90;;;;;;4979313;28;20454;-79
2020/12/06 07:19:51;;;;;;;10.77;8.07;;;6.90;99.90;;;;;;4977999;28;20459;-82
2020/12/06 07:22:31;;;;;;;12.73;9.93;;;7.30;99.90;;;;;;4990288;28;20606;-80
2020/12/06 07:25:15;;;;;;;11.37;9.00;;;7.20;99.90;;;;;;4984116;28;20483;-77
2020/12/06 07:27:50;;;;;;;10.53;8.07;;;7.00;99.90;;;;;;4976928;28;20569;-81
2020/12/06 07:30:38;;;;;;;10.70;9.17;;;6.90;99.90;;;;;;4971237;28;20466;-78
2020/12/06 07:33:34;;;;;;;12.30;10.33;;;7.00;99.90;;;;;;4980840;28;20494;-79
2020/12/06 07:36:16;;;;;;;11.83;8.83;;;7.10;99.90;;;;;;4981712;28;20459;-79
2020/12/06 07:39:29;;;;;;;10.87;9.00;;;7.10;99.90;;;;;;4975011;28;20467;-77
2020/12/06 07:42:22;;;;;;;11.60;9.10;;;6.90;99.90;;;;;;4975452;28;22123;-79
2020/12/06 07:45:32;;;;;;;12.97;9.83;;;6.80;99.90;;;;;;4991742;28;20458;-78
2020/12/06 07:51:56;;;;;;;10.90;9.73;;;6.80;99.90;;;;;;4960340;28;20442;-81
2020/12/06 07:54:50;;;;;;;13.70;10.07;;;7.30;99.90;;;;;;4981056;28;20511;-79
2020/12/06 07:57:39;;;;;;;12.30;10.30;;;7.20;99.90;;;;;;4983187;28;20450;-77
2020/12/06 08:03:54;;;;;;;12.60;9.33;;;6.80;99.90;;;;;;4986515;28;20478;-79
2020/12/06 08:06:59;;;;;;;11.60;8.67;;;6.60;99.90;;;;;;4983369;28;20443;-81
2020/12/06 08:09:39;;;;;;;11.63;9.13;;;6.60;99.90;;;;;;4961997;28;20561;-82
2020/12/06 08:12:36;;;;;;;13.50;10.37;;;6.70;99.90;;;;;;4974774;28;20464;-81
2020/12/06 08:15:23;;;;;;;11.83;9.70;;;6.80;99.90;;;;;;4977860;28;20918;-81
2020/12/06 08:18:19;;;;;;;12.13;9.33;;;6.90;99.90;;;;;;4976024;28;20459;-81
2020/12/06 08:21:26;;;;;;;12.30;10.53;;;7.20;99.90;;;;;;4976470;28;21094;-80
2020/12/06 08:24:17;;;;;;;16.53;11.10;;;7.60;99.90;;;;;;4979515;28;20459;-79
2020/12/06 08:26:53;;;;;;;13.00;10.27;;;7.60;99.90;;;;;;4979347;28;20459;-80
2020/12/06 08:30:06;;;;;;;13.60;10.20;;;7.60;99.90;;;;;;4980127;28;20479;-82
2020/12/06 08:32:59;;;;;;;12.07;10.20;;;7.40;99.90;;;;;;4975847;28;20463;-80
2020/12/06 08:36:06;;;;;;;13.73;10.23;;;7.30;99.90;;;;;;4979924;28;20459;-81
2020/12/06 08:39:35;;;;;;;13.20;10.00;;;7.80;99.90;;;;;;4973943;28;20455;-80
2020/12/06 08:42:11;;;;;;;10.60;9.43;;;7.40;99.90;;;;;;4975207;28;20448;-80
2020/12/06 08:52:00;;;;;;;10.80;8.30;;;7.50;99.90;;;;;;4972366;28;20539;-79
2020/12/06 08:54:34;;;;;;;9.80;8.40;;;7.50;99.90;;;;;;4978053;28;20481;-80
2020/12/06 08:57:11;;;;;;;11.40;8.80;;;7.20;99.90;;;;;;4979824;28;20533;-80
2020/12/06 08:59:39;;;;;;;11.67;9.27;;;7.20;99.90;;;;;;4981955;28;21019;-80
2020/12/06 09:02:06;;;;;;;9.87;8.17;;;7.00;99.90;;;;;;4981987;28;20464;-80
2020/12/06 09:04:34;;;;;;;10.80;8.20;;;6.90;99.90;;;;;;4983569;28;21066;-79
2020/12/06 09:07:03;;;;;;;11.43;8.57;;;6.80;99.90;;;;;;4986893;28;20451;-79
2020/12/06 09:09:38;;;;;;;13.20;11.30;;;6.80;99.90;;;;;;4980484;28;20555;-80
2020/12/06 09:12:05;;;;;;;12.80;11.30;;;6.70;99.90;;;;;;4981068;28;20474;-81
2020/12/06 09:14:33;;;;;;;11.50;10.40;;;6.80;99.90;;;;;;4980784;28;20476;-80
2020/12/06 09:16:59;;;;;;;11.60;10.00;;;6.80;99.90;;;;;;4981202;28;20458;-80
2020/12/06 09:19:26;;;;;;;12.50;9.90;;;6.80;99.90;;;;;;4993203;28;20538;-81
2020/12/06 09:21:52;;;;;;;13.40;10.07;;;7.10;99.90;;;;;;4983749;28;20517;-78
2020/12/06 09:24:19;;;;;;;11.47;9.97;;;7.30;99.90;;;;;;4984943;28;20832;-79
2020/12/06 09:26:46;;;;;;;11.20;9.37;;;7.10;99.90;;;;;;4986733;28;20467;-81
2020/12/06 09:29:13;;;;;;;16.30;10.77;;;7.00;99.90;;;;;;4988168;28;20503;-79
2020/12/06 09:31:41;;;;;;;12.73;9.27;;;6.90;99.90;;;;;;4989448;28;21675;-79
2020/12/06 09:34:08;;;;;;;11.10;9.70;;;6.80;99.90;;;;;;4983422;28;20584;-79
2020/12/06 09:36:41;;;;;;;10.73;9.10;;;6.60;99.90;;;;;;4985905;28;20965;-79
2020/12/06 09:39:08;;;;;;;12.13;8.87;;;6.60;99.90;;;;;;4997003;28;20479;-78
2020/12/06 09:41:38;;;;;;;9.50;8.60;;;6.60;99.90;;;;;;4995213;28;20447;-78
2020/12/06 09:44:07;;;;;;;10.70;8.60;;;6.50;99.90;;;;;;4982160;28;20463;-81
2020/12/06 09:46:34;;;;;;;11.90;9.10;;;6.50;99.90;;;;;;4979655;28;20559;-78
2020/12/06 09:49:02;;;;;;;10.87;9.00;;;6.60;99.90;;;;;;4980415;28;20809;-81
2020/12/06 09:51:28;;;;;;;11.37;8.93;;;6.60;99.90;;;;;;4981870;28;20459;-80
2020/12/06 09:53:55;;;;;;;14.77;10.13;;;6.60;99.90;;;;;;4979700;28;20484;-82
2020/12/06 09:56:26;;;;;;;13.90;9.27;;;6.60;99.90;;;;;;4981341;28;20478;-80
2020/12/06 09:58:53;;;;;;;10.67;8.40;;;6.70;99.90;;;;;;4981146;28;20507;-79
2020/12/06 10:01:20;;;;;;;10.20;8.80;;;7.00;99.90;;;;;;4997251;28;20483;-80
2020/12/06 10:03:47;;;;;;;8.93;8.03;;;7.10;99.90;;;;;;4997729;28;20520;-78
2020/12/06 10:06:14;;;;;;;10.73;8.70;;;7.10;99.90;;;;;;4994225;28;20455;-81
2020/12/06 10:08:41;;;;;;;10.07;8.23;;;6.90;99.90;;;;;;4997256;28;20475;-77
2020/12/06 10:11:08;;;;;;;11.67;8.90;;;6.90;99.90;;;;;;4997129;28;20451;-79
2020/12/06 10:13:37;;;;;;;14.20;8.97;;;6.90;99.90;;;;;;4995470;28;20487;-79
2020/12/06 10:16:05;;;;;;;10.50;8.10;;;6.90;99.90;;;;;;4995578;28;20486;-78
2020/12/06 10:18:32;;;;;;;10.87;8.80;;;7.00;99.90;;;;;;4998390;28;20470;-79
2020/12/06 10:21:01;;;;;;;12.90;9.30;;;7.00;99.90;;;;;;4994824;28;20452;-77
2020/12/06 10:23:29;;;;;;;12.70;9.60;;;7.10;99.90;;;;;;4995128;28;20447;-79
2020/12/06 10:25:56;;;;;;;10.63;9.53;;;7.40;99.90;;;;;;4993852;28;21113;-79
2020/12/06 10:28:23;;;;;;;11.13;9.07;;;7.20;99.90;;;;;;4981749;28;21827;-79
2020/12/06 10:30:50;;;;;;;11.90;8.83;;;7.10;99.90;;;;;;4976131;28;20857;-79
2020/12/06 10:33:17;;;;;;;10.73;9.17;;;7.20;99.90;;;;;;4980520;28;20502;-81
2020/12/06 10:35:44;;;;;;;12.33;9.30;;;7.30;99.90;;;;;;4976024;28;20482;-81
2020/12/06 10:38:12;;;;;;;9.83;8.60;;;7.30;99.90;;;;;;4979690;28;20502;-80
2020/12/06 10:40:39;;;;;;;12.73;8.50;;;7.40;99.90;;;;;;4976888;28;21268;-80
2020/12/06 10:43:06;;;;;;;10.83;8.27;;;7.40;99.90;;;;;;4979155;28;20467;-80
2020/12/06 10:45:34;;;;;;;10.00;8.50;;;7.70;99.90;;;;;;4979743;28;20539;-80
2020/12/06 10:48:04;;;;;;;13.10;9.20;;;7.90;99.90;;;;;;4980281;28;20548;-79
2020/12/06 10:50:32;;;;;;;10.70;8.60;;;8.30;99.90;;;;;;4981432;28;20506;-79
2020/12/06 10:52:59;;;;;;;12.07;9.13;;;8.10;99.90;;;;;;4983234;28;20522;-81
2020/12/06 10:55:26;;;;;;;10.10;8.20;;;7.80;99.90;;;;;;4983956;28;20554;-81
2020/12/06 10:57:57;;;;;;;8.87;7.60;;;7.70;99.90;;;;;;4987897;28;20455;-77
2020/12/06 11:00:24;;;;;;;10.50;9.40;;;7.60;99.90;;;;;;4967741;28;20447;-79
2020/12/06 11:02:51;;;;;;;12.00;8.37;;;7.70;99.90;;;;;;4979525;28;20455;-82
2020/12/06 11:05:19;;;;;;;10.20;8.13;;;7.60;99.90;;;;;;4976560;28;20511;-80
2020/12/06 11:14:32;;;;;;;11.50;8.83;;;7.40;99.90;;;;;;4933081;29;20550;-79
2020/12/06 11:17:16;;;;;;;9.07;8.00;;;7.30;99.90;;;;;;4912515;28;20537;-80
2020/12/06 11:21:11;;;;;;;9.60;8.60;;;7.40;99.90;;;;;;4928312;29;20569;-80
2020/12/06 11:24:36;;;;;;;9.00;8.10;;;7.40;99.90;;;;;;4919026;29;20462;-80
2020/12/06 11:27:02;;;;;;;9.47;8.30;;;7.60;99.90;;;;;;4895539;29;20466;-80
2020/12/06 11:29:28;;;;;;;11.13;9.13;;;7.60;99.90;;;;;;4923347;29;20486;-82
2020/12/06 11:31:55;;;;;;;14.03;9.90;;;7.60;99.90;;;;;;4924649;29;20458;-80
2020/12/06 11:34:21;;;;;;;11.27;9.57;;;7.50;99.90;;;;;;4926002;29;20486;-80
2020/12/06 11:36:51;;;;;;;11.83;9.17;;;7.60;99.90;;;;;;4929714;29;20469;-80
2020/12/06 11:39:18;;;;;;;10.23;8.67;;;7.40;99.90;;;;;;4930893;29;20537;-82
2020/12/06 11:41:47;;;;;;;10.83;9.70;;;7.40;99.90;;;;;;4930641;29;20490;-80
2020/12/06 11:44:16;;;;;;;9.87;8.10;;;7.30;99.90;;;;;;4928226;29;20501;-82
2020/12/06 11:50:02;;;;;;;11.10;9.30;;;7.30;99.90;;;;;;4922112;29;20488;-81
2020/12/06 11:52:34;;;;;;;11.53;9.53;;;7.30;99.90;;;;;;4907905;29;20577;-80
2020/12/06 11:58:45;;;;;;;12.87;11.27;;;7.30;99.90;;;;;;5078872;23;20515;-80
2020/12/06 12:01:11;;;;;;;10.10;8.90;;;7.30;99.90;;;;;;4944890;28;20453;-80
2020/12/06 12:03:40;;;;;;;10.07;8.97;;;7.30;99.90;;;;;;4947912;28;20465;-79
2020/12/06 12:06:07;;;;;;;10.23;8.83;;;7.30;99.90;;;;;;4948260;28;20464;-79
2020/12/06 12:08:34;;;;;;;10.07;8.97;;;7.30;99.90;;;;;;4961540;28;20484;-78
2020/12/06 12:11:01;;;;;;;10.80;8.93;;;7.30;99.90;;;;;;4945224;29;20468;-80
2020/12/06 12:13:27;;;;;;;10.70;9.60;;;7.30;99.90;;;;;;4953681;28;20477;-79
2020/12/06 12:15:57;;;;;;;12.07;9.20;;;7.30;99.90;;;;;;4959751;28;20477;-78
2020/12/06 12:18:24;;;;;;;10.10;8.97;;;7.30;99.90;;;;;;4948118;28;21886;-80
2020/12/06 12:20:51;;;;;;;10.13;9.00;;;7.40;99.90;;;;;;4944997;28;20460;-79
2020/12/06 12:23:18;;;;;;;9.97;8.93;;;7.30;99.90;;;;;;4941976;28;20905;-80
2020/12/06 12:25:44;;;;;;;10.47;9.03;;;7.40;99.90;;;;;;4943012;28;20599;-80
2020/12/06 12:28:12;;;;;;;14.20;9.30;;;7.40;99.90;;;;;;4943637;28;20508;-80
2020/12/06 12:30:39;;;;;;;10.43;9.07;;;7.40;99.90;;;;;;4947758;28;20464;-81
2020/12/06 12:33:06;;;;;;;11.00;9.37;;;7.40;99.90;;;;;;4948352;28;20476;-80
2020/12/06 12:35:34;;;;;;;11.50;9.80;;;7.20;99.90;;;;;;4953324;28;20461;-80
2020/12/06 12:38:00;;;;;;;12.20;9.07;;;7.20;99.90;;;;;;4947490;28;20504;-80
2020/12/06 12:40:27;;;;;;;9.40;8.20;;;7.20;99.90;;;;;;4946584;28;20492;-80
2020/12/06 12:42:54;;;;;;;12.03;9.90;;;7.20;99.90;;;;;;4947744;28;20463;-81
2020/12/06 12:45:21;;;;;;;10.50;9.37;;;7.20;99.90;;;;;;4944948;29;20552;-81
2020/12/06 12:47:47;;;;;;;11.43;9.93;;;7.20;99.90;;;;;;4947133;28;20901;-78
2020/12/06 12:50:17;;;;;;;10.77;9.60;;;7.20;99.90;;;;;;4947251;28;20491;-80
2020/12/06 12:53:29;;;;;;;11.23;10.13;;;7.10;99.90;;;;;;4903686;28;20476;-81
2020/12/06 12:56:14;;;;;;;14.67;10.47;;;7.20;99.90;;;;;;4965444;28;20556;-80
2020/12/06 12:59:00;;;;;;;15.17;11.80;;;7.10;99.90;;;;;;4946929;28;20548;-79
2020/12/06 13:01:51;;;;;;;11.07;9.93;;;7.10;99.90;;;;;;4946932;29;20479;-82
2020/12/06 13:04:37;;;;;;;14.50;9.63;;;7.20;99.90;;;;;;4947044;28;20463;-80
2020/12/06 13:07:55;;;;;;;12.20;10.23;;;7.30;99.90;;;;;;4948472;28;20551;-81
2020/12/06 13:10:54;;;;;;;11.23;9.63;;;7.30;99.90;;;;;;4940754;29;20465;-80
2020/12/06 13:13:49;;;;;;;14.33;11.10;;;7.20;99.90;;;;;;4952811;28;20526;-80
2020/12/06 13:19:59;;;;;;;13.30;10.40;;;7.10;99.90;;;;;;4949407;28;20479;-82
2020/12/06 13:22:57;;;;;;;14.70;10.70;;;7.30;99.90;;;;;;4940907;28;20477;-81
2020/12/06 13:25:43;;;;;;;13.23;11.83;;;7.50;99.90;;;;;;4951829;29;20821;-80
2020/12/06 13:28:39;;;;;;;14.40;11.60;;;7.40;99.90;;;;;;4950241;28;21119;-80
2020/12/06 13:31:36;;;;;;;15.10;11.57;;;7.30;99.90;;;;;;4955239;28;20437;-79
2020/12/06 13:34:32;;;;;;;;;;;;;;;;;;;;;
2020/12/06 13:40:41;;;;;;;13.53;11.63;;;7.20;99.90;;;;;;4956334;28;20544;-82
2020/12/06 13:43:52;;;;;;;15.27;12.90;;;7.20;99.90;;;;;;4955947;28;20445;-79
2020/12/06 13:46:33;;;;;;;17.40;12.47;;;7.20;99.90;;;;;;4923086;28;20481;-80
2020/12/06 13:49:40;;;;;;;18.00;14.60;;;7.20;99.90;;;;;;4943210;28;20467;-79
2020/12/06 13:52:41;;;;;;;16.00;13.00;;;7.10;99.90;;;;;;4953857;28;21237;-79
2020/12/06 13:55:41;;;;;;;;;;;;;;;;;;;;;
2020/12/06 13:58:22;;;;;;;19.73;15.07;;;7.10;99.90;;;;;;4949872;28;20587;-80
2020/12/06 14:01:07;;;;;;;19.77;14.07;;;7.30;99.90;;;;;;4936536;28;20965;-81
2020/12/06 14:03:44;;;;;;;18.27;14.07;;;7.30;99.90;;;;;;4948875;28;20491;-80
2020/12/06 14:06:26;;;;;;;17.03;13.60;;;7.30;99.90;;;;;;4949491;29;20469;-78
2020/12/06 14:09:01;;;;;;;22.63;16.20;;;7.30;99.90;;;;;;4948368;28;20476;-80
2020/12/06 14:12:00;;;;;;;22.20;15.60;;;7.20;99.90;;;;;;4950816;29;20528;-79
2020/12/06 14:14:48;;;;;;;20.17;14.90;;;7.30;99.90;;;;;;4941063;29;20495;-81
2020/12/06 14:17:46;;;;;;;;;;;;;;;;;;;;;
2020/12/06 14:21:04;;;;;;;19.87;15.00;;;7.30;99.90;;;;;;4949616;28;20919;-80
2020/12/06 14:23:37;;;;;;;19.57;15.47;;;7.60;99.90;;;;;;4949925;28;20468;-82
2020/12/06 14:26:31;;;;;;;23.27;15.90;;;8.20;99.90;;;;;;4949971;28;20527;-82
2020/12/06 14:29:17;;;;;;;20.90;15.60;;;8.10;99.90;;;;;;4897444;29;20458;-81
2020/12/06 14:32:16;;;;;;;19.73;14.90;;;7.70;99.90;;;;;;4895820;29;20466;-78
2020/12/06 14:35:10;;;;;;;17.60;13.83;;;7.50;99.90;;;;;;4910183;29;20487;-81
2020/12/06 14:38:10;;;;;;;18.77;15.13;;;7.30;99.90;;;;;;4906763;29;20447;-81
2020/12/06 14:40:52;;;;;;;20.87;15.83;;;7.20;99.90;;;;;;4909252;29;20544;-79
2020/12/06 14:43:35;;;;;;;19.13;14.77;;;7.20;99.90;;;;;;4895591;29;20549;-80
2020/12/06 14:46:31;;;;;;;17.47;13.33;;;7.20;99.90;;;;;;4834390;29;20776;-82
2020/12/06 14:49:15;;;;;;;23.20;15.40;;;7.40;99.90;;;;;;4832806;29;20876;-82
2020/12/06 14:52:25;;;;;;;;;;;;;;;;;;;;;
2020/12/06 14:55:00;;;;;;;19.37;13.93;;;7.40;99.90;;;;;;4835381;29;20529;-82
2020/12/06 14:57:40;;;;;;;25.00;16.50;;;7.70;99.90;;;;;;4836541;29;20987;-80
2020/12/06 15:00:30;;;;;;;26.03;17.67;;;7.90;99.90;;;;;;4835993;29;20466;-79
2020/12/06 15:03:17;;;;;;;22.67;15.47;;;7.50;99.90;;;;;;4821473;29;20454;-80
2020/12/06 15:06:05;;;;;;;24.07;15.90;;;7.50;99.90;;;;;;4830353;29;20476;-79
2020/12/06 15:09:04;;;;;;;21.10;15.20;;;7.40;99.90;;;;;;4870113;29;20473;-79
2020/12/06 15:11:53;;;;;;;22.00;16.43;;;7.40;99.90;;;;;;4874594;29;20453;-79
2020/12/06 15:15:14;;;;;;;22.57;16.47;;;7.20;99.90;;;;;;4839713;29;22149;-82
2020/12/06 15:18:08;;;;;;;21.57;14.47;;;7.20;99.90;;;;;;4902609;29;20483;-79
2020/12/06 15:21:24;;;;;;;;;;;;;;;;;;;;;
2020/12/06 15:24:05;;;;;;;23.83;16.20;;;7.30;99.90;;;;;;4907939;29;20457;-80
2020/12/06 15:30:15;;;;;;;26.80;17.13;;;7.40;99.90;;;;;;4888839;29;20483;-82
2020/12/06 15:32:59;;;;;;;24.90;16.53;;;7.30;99.90;;;;;;4851194;29;20507;-82